createdAt,value
2023-02-14T00:01:10.214Z,86.73
2023-02-14T00:03:37.224Z,113.93
2023-02-14T00:06:12.397Z,73.20
2023-02-14T00:08:41.205Z,73.87
2023-02-14T00:11:11.850Z,74.23
2023-02-14T00:13:39.451Z,88.30
2023-02-14T00:16:06.532Z,72.23
2023-02-14T00:18:52.386Z,106.80
2023-02-14T00:21:19.308Z,73.47
2023-02-14T00:23:46.213Z,81.70
2023-02-14T00:26:15.088Z,111.60
2023-02-14T00:28:42.300Z,70.27
2023-02-14T00:31:09.719Z,98.23
2023-02-14T00:33:37.108Z,118.27
2023-02-14T00:36:07.364Z,68.93
2023-02-14T00:38:35.047Z,199.33
2023-02-14T00:41:02.530Z,140.13
2023-02-14T00:43:29.566Z,92.73
2023-02-14T00:45:56.566Z,124.90
2023-02-14T00:48:23.663Z,135.70
2023-02-14T00:50:50.677Z,129.57
2023-02-14T00:53:17.796Z,143.90
2023-02-14T00:55:47.795Z,96.67
2023-02-14T00:58:14.906Z,149.47
2023-02-14T01:00:41.939Z,67.57
2023-02-14T01:03:08.875Z,215.87
2023-02-14T01:05:35.902Z,89.30
2023-02-14T01:08:02.969Z,163.43
2023-02-14T01:10:29.984Z,157.90
2023-02-14T01:12:56.925Z,64.87
2023-02-14T01:15:24.010Z,185.03
2023-02-14T01:17:50.987Z,152.27
2023-02-14T01:20:18.057Z,89.37
2023-02-14T01:22:44.951Z,74.37
2023-02-14T01:25:11.946Z,105.87
2023-02-14T01:27:39.204Z,94.80
2023-02-14T01:30:06.897Z,79.80
2023-02-14T01:32:34.711Z,145.87
2023-02-14T01:35:01.820Z,107.90
2023-02-14T01:37:30.413Z,140.97
2023-02-14T01:39:57.379Z,144.77
2023-02-14T01:42:24.311Z,179.47
2023-02-14T01:44:57.848Z,82.97
2023-02-14T01:47:27.403Z,82.40
2023-02-14T01:50:00.248Z,120.63
2023-02-14T01:52:33.068Z,89.90
2023-02-14T01:55:04.035Z,86.20
2023-02-14T01:57:40.994Z,132.23
2023-02-14T02:00:28.381Z,141.97
2023-02-14T02:02:58.944Z,111.63
2023-02-14T02:05:27.131Z,72.00
2023-02-14T02:07:57.551Z,259.07
2023-02-14T02:10:24.556Z,148.70
2023-02-14T02:12:53.481Z,169.73
2023-02-14T02:15:23.878Z,116.40
2023-02-14T02:18:16.064Z,130.30
2023-02-14T02:21:01.998Z,88.50
2023-02-14T02:23:47.000Z,124.37
2023-02-14T02:26:29.340Z,230.93
2023-02-14T02:29:08.074Z,94.43
2023-02-14T02:31:52.824Z,106.27
2023-02-14T02:34:38.528Z,78.77
2023-02-14T02:37:05.411Z,104.37
2023-02-14T02:39:42.035Z,101.93
2023-02-14T02:42:34.065Z,88.87
2023-02-14T02:45:03.989Z,98.57
2023-02-14T02:47:44.800Z,134.70
2023-02-14T02:50:40.154Z,74.60
2023-02-14T02:53:39.856Z,98.73
2023-02-14T02:56:46.978Z,186.63
2023-02-14T02:59:25.039Z,119.87
2023-02-14T03:02:04.046Z,111.60
2023-02-14T03:04:53.755Z,132.07
2023-02-14T03:07:36.945Z,80.90
2023-02-14T03:10:12.745Z,85.77
2023-02-14T03:13:01.138Z,152.77
2023-02-14T03:15:28.136Z,60.57
2023-02-14T03:19:05.119Z,76.80
2023-02-14T03:21:38.186Z,81.80
2023-02-14T03:24:16.855Z,83.33
2023-02-14T03:26:50.792Z,177.07
2023-02-14T03:29:35.798Z,67.07
2023-02-14T03:32:31.461Z,145.20
2023-02-14T03:35:23.931Z,79.23
2023-02-14T03:38:15.543Z,103.87
2023-02-14T03:40:54.785Z,78.40
2023-02-14T03:43:34.990Z,144.13
2023-02-14T03:46:02.426Z,71.87
2023-02-14T03:48:31.010Z,76.00
2023-02-14T03:51:00.010Z,72.27
2023-02-14T03:53:31.821Z,82.20
2023-02-14T03:56:29.446Z,67.27
2023-02-14T03:58:58.697Z,84.97
2023-02-14T04:01:38.449Z,122.67
2023-02-14T04:04:07.504Z,145.67
2023-02-14T04:06:35.164Z,81.43
2023-02-14T04:09:02.128Z,113.13
2023-02-14T04:11:29.136Z,139.97
2023-02-14T04:13:56.033Z,113.17
2023-02-14T04:16:23.026Z,84.40
2023-02-14T04:19:08.738Z,97.50
2023-02-14T04:21:35.738Z,120.33
2023-02-14T04:24:02.674Z,114.27
2023-02-14T04:26:29.639Z,74.73
2023-02-14T04:28:56.524Z,85.73
2023-02-14T04:31:23.499Z,96.57
2023-02-14T04:33:51.373Z,75.03
2023-02-14T04:36:18.412Z,104.57
2023-02-14T04:38:45.331Z,119.53
2023-02-14T04:41:12.328Z,54.40
2023-02-14T04:43:39.227Z,77.90
2023-02-14T04:46:06.196Z,105.03
2023-02-14T04:48:33.120Z,62.33
2023-02-14T04:51:01.419Z,84.83
2023-02-14T04:53:28.481Z,123.97
2023-02-14T04:55:55.466Z,93.93
2023-02-14T04:58:22.327Z,114.27
2023-02-14T05:00:49.332Z,85.13
2023-02-14T05:03:16.292Z,68.27
2023-02-14T05:05:43.280Z,105.63
2023-02-14T05:08:10.196Z,88.37
2023-02-14T05:10:37.122Z,105.60
2023-02-14T05:13:04.065Z,89.17
2023-02-14T05:15:31.072Z,79.53
2023-02-14T05:18:01.927Z,81.13
2023-02-14T05:20:29.628Z,88.53
2023-02-14T05:22:56.894Z,86.80
2023-02-14T05:25:23.966Z,76.73
2023-02-14T05:27:50.925Z,79.87
2023-02-14T05:30:18.413Z,74.93
2023-02-14T05:32:45.522Z,75.57
2023-02-14T05:35:12.548Z,95.97
2023-02-14T05:37:40.518Z,59.50
2023-02-14T05:40:08.416Z,55.47
2023-02-14T05:42:35.433Z,56.00
2023-02-14T05:45:02.337Z,129.73
2023-02-14T05:47:29.319Z,86.50
2023-02-14T05:49:56.273Z,87.50
2023-02-14T05:52:23.606Z,60.60
2023-02-14T05:54:50.520Z,51.20
2023-02-14T05:57:17.605Z,88.30
2023-02-14T05:59:44.645Z,89.40
2023-02-14T06:02:11.946Z,95.93
2023-02-14T06:04:38.898Z,63.27
2023-02-14T06:07:05.895Z,69.57
2023-02-14T06:09:32.805Z,86.77
2023-02-14T06:12:00.806Z,105.57
2023-02-14T06:14:27.885Z,91.53
2023-02-14T06:16:55.912Z,75.53
2023-02-14T06:19:22.867Z,97.90
2023-02-14T06:21:49.799Z,96.23
2023-02-14T06:24:16.799Z,57.80
2023-02-14T06:26:43.748Z,65.67
2023-02-14T06:29:10.807Z,91.57
2023-02-14T06:31:37.937Z,72.63
2023-02-14T06:34:05.014Z,107.03
2023-02-14T06:36:32.202Z,89.43
2023-02-14T06:38:59.128Z,51.97
2023-02-14T06:41:26.042Z,71.30
2023-02-14T06:43:53.185Z,54.13
2023-02-14T06:46:20.632Z,62.90
2023-02-14T06:48:47.970Z,55.50
2023-02-14T06:51:14.924Z,46.17
2023-02-14T06:53:41.886Z,73.67
2023-02-14T06:56:08.983Z,54.80
2023-02-14T06:58:35.995Z,57.07
2023-02-14T07:01:03.169Z,66.80
2023-02-14T07:03:30.581Z,59.93
2023-02-14T07:05:58.443Z,42.03
2023-02-14T07:08:26.392Z,57.47
2023-02-14T07:10:57.379Z,64.87
2023-02-14T07:13:25.465Z,59.40
2023-02-14T07:15:52.443Z,59.60
2023-02-14T07:18:19.465Z,53.17
2023-02-14T07:20:47.818Z,48.10
2023-02-14T07:23:14.781Z,43.63
2023-02-14T07:25:41.675Z,55.03
2023-02-14T07:28:08.726Z,43.13
2023-02-14T07:30:35.744Z,50.23
2023-02-14T07:33:02.785Z,71.40
2023-02-14T07:35:29.812Z,71.23
2023-02-14T07:37:56.814Z,57.93
2023-02-14T07:40:25.313Z,67.03
2023-02-14T07:42:57.090Z,48.43
2023-02-14T07:45:24.840Z,40.73
2023-02-14T07:47:55.233Z,59.03
2023-02-14T07:50:23.599Z,56.37
2023-02-14T07:52:50.582Z,47.80
2023-02-14T07:55:19.404Z,64.27
2023-02-14T07:57:48.481Z,54.03
2023-02-14T08:00:15.722Z,44.70
2023-02-14T08:02:42.804Z,45.90
2023-02-14T08:05:10.343Z,41.93
2023-02-14T08:07:38.420Z,38.13
2023-02-14T08:10:06.085Z,51.27
2023-02-14T08:12:51.746Z,40.07
2023-02-14T08:15:37.419Z,53.23
2023-02-14T08:18:04.388Z,54.57
2023-02-14T08:20:33.522Z,64.97
2023-02-14T08:23:00.450Z,53.20
2023-02-14T08:25:27.601Z,46.93
2023-02-14T08:27:55.721Z,43.67
2023-02-14T08:30:23.949Z,47.10
2023-02-14T08:32:51.016Z,50.40
2023-02-14T08:35:18.015Z,46.20
2023-02-14T08:37:50.910Z,56.37
2023-02-14T08:40:18.006Z,48.60
2023-02-14T08:42:45.047Z,44.90
2023-02-14T08:45:11.970Z,58.93
2023-02-14T08:47:40.365Z,40.50
2023-02-14T08:50:16.119Z,47.60
2023-02-14T08:52:44.433Z,41.57
2023-02-14T08:55:12.802Z,66.17
2023-02-14T08:57:40.496Z,65.17
2023-02-14T09:00:08.618Z,37.50
2023-02-14T09:02:35.856Z,36.30
2023-02-14T09:05:02.823Z,32.37
2023-02-14T09:07:29.886Z,44.23
2023-02-14T09:09:56.890Z,34.43
2023-02-14T09:12:23.811Z,43.47
2023-02-14T09:14:51.014Z,54.90
2023-02-14T09:17:18.322Z,37.10
2023-02-14T09:19:45.393Z,38.03
2023-02-14T09:22:12.389Z,29.90
2023-02-14T09:24:41.624Z,37.60
2023-02-14T09:27:09.336Z,38.33
2023-02-14T09:29:37.369Z,38.20
2023-02-14T09:32:05.607Z,37.13
2023-02-14T09:34:34.453Z,82.30
2023-02-14T09:37:01.667Z,32.53
2023-02-14T09:39:28.609Z,32.23
2023-02-14T09:42:08.078Z,31.87
2023-02-14T09:44:40.757Z,29.30
2023-02-14T09:47:40.377Z,50.10
2023-02-14T09:50:30.447Z,33.50
2023-02-14T09:52:59.522Z,33.67
2023-02-14T09:55:35.011Z,28.20
2023-02-14T09:58:19.361Z,33.97
2023-02-14T10:00:52.727Z,28.20
2023-02-14T10:03:44.420Z,39.60
2023-02-14T10:06:31.912Z,29.03
2023-02-14T10:09:32.828Z,43.73
2023-02-14T10:12:01.668Z,30.07
2023-02-14T10:14:36.555Z,41.50
2023-02-14T10:17:29.155Z,29.63
2023-02-14T10:20:02.036Z,29.90
2023-02-14T10:22:59.956Z,29.73
2023-02-14T10:25:36.879Z,25.80
2023-02-14T10:28:04.626Z,34.37
2023-02-14T10:30:40.058Z,36.73
2023-02-14T10:33:18.388Z,29.10
2023-02-14T10:35:51.224Z,28.73
2023-02-14T10:38:26.960Z,27.30
2023-02-14T10:41:18.578Z,28.07
2023-02-14T10:43:51.911Z,28.70
2023-02-14T10:46:21.875Z,28.23
2023-02-14T10:49:22.597Z,30.37
2023-02-14T10:52:08.369Z,28.57
2023-02-14T10:54:42.092Z,24.87
2023-02-14T10:57:16.800Z,28.30
2023-02-14T10:59:54.980Z,27.97
2023-02-14T11:02:31.830Z,26.97
2023-02-14T11:05:00.040Z,28.30
2023-02-14T11:07:27.180Z,26.43
2023-02-14T11:09:54.124Z,30.47
2023-02-14T11:12:40.710Z,31.70
2023-02-14T11:15:32.380Z,35.00
2023-02-14T11:18:18.879Z,28.70
2023-02-14T11:21:29.286Z,26.20
2023-02-14T11:23:56.283Z,32.07
2023-02-14T11:26:35.273Z,27.47
2023-02-14T11:29:13.350Z,31.03
2023-02-14T11:31:42.085Z,34.53
2023-02-14T11:34:30.060Z,33.27
2023-02-14T11:36:57.362Z,27.17
2023-02-14T11:39:35.296Z,30.13
2023-02-14T11:42:05.048Z,29.47
2023-02-14T11:44:34.327Z,30.20
2023-02-14T11:47:28.936Z,28.07
2023-02-14T11:50:30.738Z,29.80
2023-02-14T11:52:59.964Z,29.10
2023-02-14T11:55:33.220Z,28.20
2023-02-14T11:58:07.005Z,27.40
2023-02-14T12:00:35.406Z,27.23
2023-02-14T12:03:06.147Z,33.20
2023-02-14T12:05:45.928Z,28.93
2023-02-14T12:08:13.556Z,29.87
2023-02-14T12:10:42.220Z,31.53
2023-02-14T12:13:09.097Z,28.77
2023-02-14T12:15:48.114Z,26.37
2023-02-14T12:18:43.243Z,34.30
2023-02-14T12:21:41.152Z,27.83
2023-02-14T12:24:29.883Z,38.00
2023-02-14T12:27:06.240Z,31.00
2023-02-14T12:30:12.813Z,31.93
2023-02-14T12:32:49.697Z,31.27
2023-02-14T12:35:27.740Z,31.63
2023-02-14T12:38:06.343Z,28.97
2023-02-14T12:41:11.495Z,29.87
2023-02-14T12:43:50.755Z,33.73
2023-02-14T12:46:45.521Z,31.27
2023-02-14T12:49:22.650Z,30.37
2023-02-14T12:52:10.916Z,38.33
2023-02-14T12:55:06.298Z,33.73
2023-02-14T12:57:39.058Z,32.00
2023-02-14T13:00:24.687Z,34.57
2023-02-14T13:03:09.547Z,29.03
2023-02-14T13:05:55.018Z,27.67
2023-02-14T13:08:38.668Z,32.50
2023-02-14T13:11:49.810Z,27.17
2023-02-14T13:14:39.912Z,27.03
2023-02-14T13:17:27.410Z,29.20
2023-02-14T13:20:20.682Z,25.83
2023-02-14T13:22:49.019Z,31.30
2023-02-14T13:25:33.977Z,26.60
2023-02-14T13:28:05.817Z,28.97
2023-02-14T13:30:36.966Z,31.47
2023-02-14T13:33:09.690Z,30.07
2023-02-14T13:35:37.628Z,29.33
2023-02-14T13:38:13.118Z,27.37
2023-02-14T13:40:41.331Z,28.73
2023-02-14T13:43:08.232Z,29.53
2023-02-14T13:45:35.247Z,26.67
2023-02-14T13:48:22.936Z,29.00
2023-02-14T13:51:03.490Z,26.67
2023-02-14T13:53:51.556Z,27.07
2023-02-14T13:56:18.430Z,34.23
2023-02-14T13:58:52.498Z,34.57
2023-02-14T14:01:51.911Z,30.60
2023-02-14T14:04:28.329Z,31.47
2023-02-14T14:07:04.455Z,31.63
2023-02-14T14:09:43.813Z,29.20
2023-02-14T14:12:29.129Z,26.33
2023-02-14T14:15:05.406Z,41.40
2023-02-14T14:17:42.996Z,28.50
2023-02-14T14:20:23.212Z,35.00
2023-02-14T14:22:54.472Z,32.30
2023-02-14T14:25:37.478Z,46.93
2023-02-14T14:28:24.045Z,29.77
2023-02-14T14:30:51.730Z,34.63
2023-02-14T14:33:33.914Z,29.87
2023-02-14T14:36:08.949Z,27.50
2023-02-14T14:38:47.163Z,35.77
2023-02-14T14:41:14.318Z,27.40
2023-02-14T14:43:42.125Z,31.20
2023-02-14T14:46:12.558Z,27.70
2023-02-14T14:48:44.253Z,33.77
2023-02-14T14:51:31.667Z,28.10
2023-02-14T14:54:06.083Z,27.13
2023-02-14T14:56:40.909Z,26.03
2023-02-14T14:59:30.636Z,26.13
2023-02-14T15:01:57.753Z,29.93
2023-02-14T15:04:31.671Z,28.60
2023-02-14T15:07:17.740Z,25.67
2023-02-14T15:09:45.267Z,27.27
2023-02-14T15:12:35.743Z,27.30
2023-02-14T15:15:02.986Z,29.43
2023-02-14T15:17:32.697Z,26.90
2023-02-14T15:20:05.451Z,30.97
2023-02-14T15:22:45.652Z,29.17
2023-02-14T15:25:21.590Z,31.60
2023-02-14T15:27:49.371Z,31.17
2023-02-14T15:30:34.300Z,33.00
2023-02-14T15:33:03.678Z,27.93
2023-02-14T15:35:33.984Z,31.93
2023-02-14T15:38:05.061Z,37.93
2023-02-14T15:40:35.046Z,61.20
2023-02-14T15:43:22.123Z,40.63
2023-02-14T15:45:53.012Z,33.13
2023-02-14T15:48:27.024Z,37.40
2023-02-14T15:50:59.153Z,30.13
2023-02-14T15:53:40.097Z,35.67
2023-02-14T15:56:14.219Z,35.60
2023-02-14T15:58:41.458Z,52.63
2023-02-14T16:01:09.553Z,50.43
2023-02-14T16:03:43.722Z,55.70
2023-02-14T16:06:32.976Z,37.10
2023-02-14T16:09:00.300Z,37.03
2023-02-14T16:11:31.618Z,42.43
2023-02-14T16:13:59.360Z,56.77
2023-02-14T16:16:26.328Z,75.50
2023-02-14T16:18:56.777Z,46.53
2023-02-14T16:21:28.128Z,42.90
2023-02-14T16:24:07.167Z,48.00
2023-02-14T16:26:35.581Z,48.13
2023-02-14T16:29:04.031Z,37.07
2023-02-14T16:31:32.285Z,67.50
2023-02-14T16:33:59.622Z,42.37
2023-02-14T16:36:31.624Z,31.50
2023-02-14T16:39:02.351Z,55.23
2023-02-14T16:41:30.923Z,49.63
2023-02-14T16:43:57.857Z,83.83
2023-02-14T16:46:30.401Z,41.30
2023-02-14T16:48:58.821Z,40.37
2023-02-14T16:51:32.431Z,34.93
2023-02-14T16:54:04.425Z,35.90
2023-02-14T16:56:56.568Z,45.37
2023-02-14T16:59:23.463Z,44.37
2023-02-14T17:01:50.858Z,108.27
2023-02-14T17:04:17.950Z,47.30
2023-02-14T17:06:52.432Z,38.33
2023-02-14T17:09:25.843Z,59.70
2023-02-14T17:11:55.340Z,52.47
2023-02-14T17:14:27.149Z,58.23
2023-02-14T17:16:56.025Z,52.33
2023-02-14T17:19:22.937Z,73.57
2023-02-14T17:21:50.007Z,60.23
2023-02-14T17:24:17.012Z,76.83
2023-02-14T17:26:44.729Z,66.53
2023-02-14T17:29:11.705Z,35.60
2023-02-14T17:31:39.163Z,119.93
2023-02-14T17:34:06.388Z,96.17
2023-02-14T17:36:33.519Z,81.27
2023-02-14T17:39:00.770Z,112.07
2023-02-14T17:41:29.337Z,90.13
2023-02-14T17:44:00.362Z,51.30
2023-02-14T17:46:31.515Z,54.27
2023-02-14T17:48:59.294Z,126.80
2023-02-14T17:51:26.285Z,98.70
2023-02-14T17:53:53.244Z,51.20
2023-02-14T17:56:23.222Z,40.83
2023-02-14T17:58:52.368Z,73.03
2023-02-14T18:01:25.683Z,85.03
2023-02-14T18:03:54.821Z,80.47
2023-02-14T18:06:21.828Z,114.73
2023-02-14T18:08:52.840Z,37.73
2023-02-14T18:11:21.246Z,109.57
2023-02-14T18:13:48.970Z,55.60
2023-02-14T18:16:18.542Z,167.87
2023-02-14T18:18:46.053Z,77.87
2023-02-14T18:21:15.082Z,52.40
2023-02-14T18:23:42.322Z,73.33
2023-02-14T18:26:14.108Z,105.80
2023-02-14T18:28:41.307Z,44.33
2023-02-14T18:31:12.589Z,95.77
2023-02-14T18:33:39.740Z,49.17
2023-02-14T18:36:13.168Z,75.57
2023-02-14T18:38:41.898Z,67.27
2023-02-14T18:41:11.481Z,69.07
2023-02-14T18:43:41.078Z,132.30
2023-02-14T18:46:23.282Z,108.20
2023-02-14T18:48:50.450Z,70.43
2023-02-14T18:51:26.243Z,52.43
2023-02-14T18:53:55.120Z,53.80
2023-02-14T18:56:25.656Z,46.23
2023-02-14T18:58:56.931Z,72.40
2023-02-14T19:01:33.092Z,84.80
2023-02-14T19:04:01.266Z,73.23
2023-02-14T19:06:30.644Z,94.23
2023-02-14T19:08:58.462Z,85.53
2023-02-14T19:11:28.764Z,57.60
2023-02-14T19:13:58.594Z,61.13
2023-02-14T19:16:28.741Z,41.57
2023-02-14T19:18:56.123Z,65.20
2023-02-14T19:21:29.467Z,83.43
2023-02-14T19:23:57.757Z,56.43
2023-02-14T19:26:27.816Z,45.80
2023-02-14T19:28:57.150Z,75.63
2023-02-14T19:31:24.935Z,74.17
2023-02-14T19:33:52.595Z,47.77
2023-02-14T19:36:21.296Z,43.57
2023-02-14T19:38:54.326Z,60.70
2023-02-14T19:41:27.536Z,80.90
2023-02-14T19:43:59.207Z,73.63
2023-02-14T19:46:28.021Z,39.63
2023-02-14T19:48:59.646Z,62.43
2023-02-14T19:51:32.481Z,71.77
2023-02-14T19:54:01.116Z,42.43
2023-02-14T19:56:31.381Z,46.77
2023-02-14T19:58:59.142Z,39.17
2023-02-14T20:01:31.515Z,59.23
2023-02-14T20:03:58.459Z,47.20
2023-02-14T20:06:27.443Z,44.40
2023-02-14T20:08:54.324Z,31.87
2023-02-14T20:11:35.851Z,42.10
2023-02-14T20:14:04.064Z,33.63
2023-02-14T20:16:33.541Z,37.00
2023-02-14T20:19:08.122Z,45.27
2023-02-14T20:21:35.477Z,36.63
2023-02-14T20:24:04.030Z,40.03
2023-02-14T20:26:33.117Z,39.67
2023-02-14T20:29:04.686Z,40.97
2023-02-14T20:31:33.038Z,33.83
2023-02-14T20:34:00.257Z,45.87
2023-02-14T20:36:27.526Z,41.90
2023-02-14T20:38:59.013Z,56.33
2023-02-14T20:41:27.694Z,47.40
2023-02-14T20:43:55.675Z,35.60
2023-02-14T20:46:23.226Z,41.63
2023-02-14T20:48:51.079Z,45.40
2023-02-14T20:51:20.747Z,67.80
2023-02-14T20:53:48.338Z,86.93
2023-02-14T20:56:16.271Z,47.80
2023-02-14T20:58:43.320Z,39.97
2023-02-14T21:01:13.436Z,39.60
2023-02-14T21:03:46.707Z,38.53
2023-02-14T21:06:15.408Z,53.17
2023-02-14T21:08:43.615Z,50.93
2023-02-14T21:11:12.158Z,46.77
2023-02-14T21:13:39.944Z,34.50
2023-02-14T21:16:15.045Z,32.73
2023-02-14T21:18:47.900Z,42.80
2023-02-14T21:21:20.209Z,48.97
2023-02-14T21:23:49.659Z,39.77
2023-02-14T21:26:16.961Z,37.27
2023-02-14T21:28:44.106Z,38.73
2023-02-14T21:31:13.209Z,42.07
2023-02-14T21:33:41.930Z,42.37
2023-02-14T21:36:11.326Z,35.17
2023-02-14T21:38:38.724Z,49.80
2023-02-14T21:41:11.949Z,64.23
2023-02-14T21:43:44.007Z,113.40
2023-02-14T21:46:13.584Z,78.70
2023-02-14T21:49:00.020Z,32.13
2023-02-14T21:51:28.920Z,61.77
2023-02-14T21:53:56.775Z,47.67
2023-02-14T21:56:24.146Z,51.70
2023-02-14T21:58:52.858Z,57.00
2023-02-14T22:01:28.926Z,55.10
2023-02-14T22:03:56.527Z,54.33
2023-02-14T22:06:24.541Z,51.23
2023-02-14T22:08:56.125Z,55.23
2023-02-14T22:11:24.650Z,40.13
2023-02-14T22:13:51.546Z,52.37
2023-02-14T22:16:20.385Z,48.30
2023-02-14T22:18:48.027Z,57.00
2023-02-14T22:21:18.028Z,138.17
2023-02-14T22:23:45.459Z,45.07
2023-02-14T22:26:17.458Z,42.20
2023-02-14T22:28:46.828Z,74.67
2023-02-14T22:31:15.916Z,76.17
2023-02-14T22:33:43.279Z,86.13
2023-02-14T22:36:10.626Z,44.13
2023-02-14T22:38:38.218Z,36.67
2023-02-14T22:41:10.938Z,47.93
2023-02-14T22:43:39.077Z,55.37
2023-02-14T22:46:10.644Z,30.83
2023-02-14T22:48:38.400Z,36.20
2023-02-14T22:51:30.035Z,37.70
2023-02-14T22:54:05.633Z,43.97
2023-02-14T22:56:41.131Z,41.73
2023-02-14T22:59:14.841Z,34.33
2023-02-14T23:01:42.070Z,35.40
2023-02-14T23:04:09.146Z,31.43
2023-02-14T23:06:37.312Z,31.87
2023-02-14T23:09:06.194Z,35.63
2023-02-14T23:11:35.876Z,27.87
2023-02-14T23:14:21.842Z,33.50
2023-02-14T23:17:07.654Z,44.23
2023-02-14T23:19:54.187Z,38.37
2023-02-14T23:22:28.707Z,36.53
2023-02-14T23:24:59.462Z,78.87
2023-02-14T23:27:38.845Z,38.53
2023-02-14T23:30:08.108Z,76.63
2023-02-14T23:32:35.309Z,51.47
2023-02-14T23:35:02.353Z,49.87
2023-02-14T23:37:29.427Z,35.00
2023-02-14T23:39:56.457Z,43.33
2023-02-14T23:42:23.397Z,42.83
2023-02-14T23:44:50.418Z,49.50
2023-02-14T23:47:17.497Z,54.93
2023-02-14T23:49:45.937Z,70.13
2023-02-14T23:52:13.811Z,63.13
2023-02-14T23:54:41.077Z,41.90
2023-02-14T23:57:09.356Z,37.67
2023-02-14T23:59:36.520Z,44.60
